Time;durP1;ratioP1;P1;durP2;ratioP2;P2;SDS_P1;SDS_P2;PMS_P1;PMS_P2;Temp;Humidity;BMP_temperature;BMP_pressure;BME280_temperature;BME280_humidity;BME280_pressure;Samples;Min_cycle;Max_cycle;Signal;HPM_P1;HPM_P2
2022/01/02 00:00:09;;;;;;;9.05;7.15;;;11.60;99.90;;;;;;4939447;28;89620;-41
2022/01/02 00:02:36;;;;;;;8.57;7.65;;;11.50;99.90;;;;;;4940436;28;89023;-37
2022/01/02 00:05:11;;;;;;;10.98;7.53;;;11.60;99.90;;;;;;4939589;28;87596;-42
2022/01/02 00:07:53;;;;;;;9.05;7.97;;;11.60;99.90;;;;;;4939843;28;87609;-42
2022/01/02 00:10:21;;;;;;;9.65;7.53;;;11.60;99.90;;;;;;4939768;28;90301;-40
2022/01/02 00:12:51;;;;;;;10.70;7.93;;;11.50;99.90;;;;;;4939477;28;90105;-40
2022/01/02 00:15:20;;;;;;;8.75;7.82;;;11.50;99.90;;;;;;4939633;28;87534;-38
2022/01/02 00:17:49;;;;;;;10.02;6.63;;;11.40;99.90;;;;;;4939383;28;87682;-40
2022/01/02 00:20:18;;;;;;;9.77;8.18;;;11.40;99.90;;;;;;4939312;28;90598;-42
2022/01/02 00:22:48;;;;;;;9.30;7.70;;;11.40;99.90;;;;;;4939745;28;89444;-37
2022/01/02 00:25:25;;;;;;;10.10;8.25;;;11.40;99.90;;;;;;4939723;28;87534;-40
2022/01/02 00:27:52;;;;;;;10.45;7.88;;;11.40;99.90;;;;;;4939725;28;87469;-38
2022/01/02 00:30:18;;;;;;;10.93;7.45;;;11.40;99.90;;;;;;4938635;28;90315;-43
2022/01/02 00:32:44;;;;;;;8.95;8.05;;;11.40;99.90;;;;;;4939534;28;88777;-39
2022/01/02 00:35:11;;;;;;;11.88;8.07;;;11.40;99.90;;;;;;4939412;28;87501;-40
2022/01/02 00:37:36;;;;;;;8.45;7.50;;;11.30;99.90;;;;;;4939447;28;87947;-37
2022/01/02 00:40:03;;;;;;;10.48;7.00;;;11.30;99.90;;;;;;4938894;28;90228;-38
2022/01/02 00:42:36;;;;;;;11.85;7.82;;;11.30;99.90;;;;;;4938906;28;89473;-38
2022/01/02 00:45:13;;;;;;;8.10;7.20;;;11.30;99.90;;;;;;4939130;28;88093;-42
2022/01/02 00:47:47;;;;;;;11.07;8.38;;;11.30;99.90;;;;;;4939629;28;87509;-42
2022/01/02 00:50:37;;;;;;;12.27;8.48;;;11.30;99.90;;;;;;4938878;28;90205;-37
2022/01/02 00:53:05;;;;;;;9.80;8.63;;;11.30;99.90;;;;;;4938812;28;90025;-39
2022/01/02 00:55:33;;;;;;;9.32;7.95;;;11.20;99.90;;;;;;4939549;28;88130;-36
2022/01/02 00:58:12;;;;;;;12.95;8.40;;;11.30;99.90;;;;;;4939264;28;88042;-37
2022/01/02 01:00:44;;;;;;;11.23;7.78;;;11.30;99.90;;;;;;4938920;28;90323;-39
2022/01/02 01:03:10;;;;;;;11.57;7.35;;;11.30;99.90;;;;;;4938212;28;89965;-39
2022/01/02 01:05:37;;;;;;;12.93;8.77;;;11.30;99.90;;;;;;4939351;28;87534;-39
2022/01/02 01:08:06;;;;;;;16.17;8.80;;;11.20;99.90;;;;;;4938566;28;87477;-37
2022/01/02 01:10:39;;;;;;;14.10;8.77;;;11.20;99.90;;;;;;4938378;28;90145;-39
2022/01/02 01:13:08;;;;;;;12.88;9.27;;;11.20;99.90;;;;;;4938123;28;88507;-41
2022/01/02 01:15:35;;;;;;;13.55;8.55;;;11.20;99.90;;;;;;4939250;28;87661;-40
2022/01/02 01:18:02;;;;;;;16.02;8.55;;;11.20;99.90;;;;;;4921328;28;87943;-42
2022/01/02 01:20:31;;;;;;;12.13;8.80;;;11.20;99.90;;;;;;4938604;28;90023;-43
2022/01/02 01:22:56;;;;;;;14.98;9.43;;;11.20;99.90;;;;;;4938336;28;89825;-37
2022/01/02 01:25:24;;;;;;;9.88;7.68;;;11.20;99.90;;;;;;4938424;28;87733;-44
2022/01/02 01:27:52;;;;;;;9.15;7.72;;;11.20;99.90;;;;;;4938339;28;87442;-37
2022/01/02 01:30:20;;;;;;;9.10;8.20;;;11.20;99.90;;;;;;4938374;28;90268;-37
2022/01/02 01:32:46;;;;;;;12.88;9.10;;;11.20;99.90;;;;;;4938432;28;89688;-36
2022/01/02 01:35:12;;;;;;;12.85;9.40;;;11.20;99.90;;;;;;4921240;28;88617;-40
2022/01/02 01:37:39;;;;;;;9.50;8.45;;;11.20;99.90;;;;;;4938566;28;87658;-43
2022/01/02 01:40:07;;;;;;;12.68;7.97;;;11.20;99.90;;;;;;4938357;28;90219;-41
2022/01/02 01:42:37;;;;;;;10.20;7.75;;;11.20;99.90;;;;;;4938500;28;89971;-39
2022/01/02 01:47:53;;;;;;;12.07;7.75;;;11.20;99.90;;;;;;4938185;28;87964;-43
2022/01/02 01:50:22;;;;;;;10.32;8.43;;;11.20;99.90;;;;;;4938209;28;90454;-39
2022/01/02 01:52:48;;;;;;;13.10;9.13;;;11.10;99.90;;;;;;4937960;28;89169;-43
2022/01/02 01:55:14;;;;;;;12.73;8.40;;;11.10;99.90;;;;;;4938278;28;87737;-42
2022/01/02 01:57:40;;;;;;;10.98;8.23;;;11.10;99.90;;;;;;4938071;28;87542;-39
2022/01/02 02:00:10;;;;;;;11.52;7.72;;;11.10;99.90;;;;;;4937672;28;89969;-41
2022/01/02 02:02:37;;;;;;;8.80;6.90;;;11.10;99.90;;;;;;4937667;28;89917;-35
2022/01/02 02:05:03;;;;;;;14.15;8.07;;;11.10;99.90;;;;;;4938037;28;87493;-39
2022/01/02 02:07:39;;;;;;;9.18;8.32;;;11.10;99.90;;;;;;4938132;28;87634;-37
2022/01/02 02:10:16;;;;;;;10.60;9.02;;;11.10;99.90;;;;;;4937546;28;90510;-40
2022/01/02 02:12:47;;;;;;;12.48;7.60;;;11.10;99.90;;;;;;4936846;28;89883;-41
2022/01/02 02:15:15;;;;;;;13.75;8.68;;;11.10;99.90;;;;;;4938206;28;87734;-38
2022/01/02 02:17:43;;;;;;;10.75;8.88;;;11.10;99.90;;;;;;4938122;28;88480;-35
2022/01/02 02:20:21;;;;;;;11.98;7.75;;;11.10;99.90;;;;;;4937257;28;88959;-39
2022/01/02 02:22:52;;;;;;;10.82;8.15;;;11.20;99.90;;;;;;4919564;28;89730;-42
2022/01/02 02:25:19;;;;;;;15.82;9.13;;;11.10;99.90;;;;;;4937793;28;87556;-38
2022/01/02 02:27:54;;;;;;;10.95;7.63;;;11.10;99.90;;;;;;4937943;28;88302;-38
2022/01/02 02:30:20;;;;;;;15.07;9.35;;;11.10;99.90;;;;;;4937527;28;90407;-40
2022/01/02 02:32:46;;;;;;;10.60;8.55;;;11.10;99.90;;;;;;4937208;28;89574;-39
2022/01/02 02:35:13;;;;;;;19.20;7.70;;;11.10;99.90;;;;;;4937536;28;87510;-44
2022/01/02 02:37:43;;;;;;;10.02;8.52;;;11.10;99.90;;;;;;4937369;28;87572;-41
2022/01/02 02:40:16;;;;;;;10.77;8.55;;;11.10;99.90;;;;;;4937436;28;88884;-35
2022/01/02 02:42:49;;;;;;;14.75;9.63;;;11.10;99.90;;;;;;4937644;28;89503;-42
2022/01/02 02:51:11;;;;;;;17.65;9.20;;;11.20;99.90;;;;;;4936746;28;90293;-39
2022/01/02 02:53:42;;;;;;;13.57;9.02;;;11.10;99.90;;;;;;4937147;28;89751;-36
2022/01/02 02:56:21;;;;;;;13.10;8.82;;;11.10;99.90;;;;;;4937001;28;88599;-39
2022/01/02 02:58:49;;;;;;;14.57;8.93;;;11.10;99.90;;;;;;4919949;28;87614;-38
2022/01/02 03:01:17;;;;;;;13.63;9.10;;;11.20;99.90;;;;;;4937021;28;90200;-41
2022/01/02 03:03:44;;;;;;;14.13;9.13;;;11.10;99.90;;;;;;4937024;28;90941;-42
2022/01/02 03:06:10;;;;;;;10.90;8.55;;;11.20;99.90;;;;;;4936662;28;87413;-37
2022/01/02 03:08:37;;;;;;;11.82;9.10;;;11.20;99.90;;;;;;4937025;28;87609;-37
2022/01/02 03:11:04;;;;;;;13.93;8.50;;;11.20;99.90;;;;;;4937003;28;90755;-40
2022/01/02 03:13:30;;;;;;;15.45;9.20;;;11.20;99.90;;;;;;4937008;28;89773;-43
2022/01/02 03:15:55;;;;;;;13.40;8.93;;;11.10;99.90;;;;;;4936846;28;87625;-37
2022/01/02 03:18:21;;;;;;;11.25;9.18;;;11.20;99.90;;;;;;4937036;28;87828;-35
2022/01/02 03:20:46;;;;;;;14.13;8.73;;;11.20;99.90;;;;;;4936927;28;90108;-41
2022/01/02 03:23:12;;;;;;;17.42;10.32;;;11.30;99.90;;;;;;4936552;28;89833;-36
2022/01/02 03:25:37;;;;;;;13.32;9.32;;;11.20;99.90;;;;;;4936422;28;87673;-40
2022/01/02 03:28:03;;;;;;;9.00;8.13;;;11.20;99.90;;;;;;4936311;28;87550;-42
2022/01/02 03:30:29;;;;;;;17.17;8.23;;;11.20;99.90;;;;;;4936590;28;90387;-42
2022/01/02 03:32:54;;;;;;;20.98;9.32;;;11.10;99.90;;;;;;4938417;28;88801;-39
2022/01/02 03:35:20;;;;;;;10.27;8.85;;;11.10;99.90;;;;;;4940525;28;87931;-37
2022/01/02 03:37:45;;;;;;;12.30;8.48;;;11.10;99.90;;;;;;4940531;28;87498;-36
2022/01/02 03:40:11;;;;;;;13.27;8.10;;;11.20;99.90;;;;;;4939711;28;89109;-39
2022/01/02 03:42:38;;;;;;;17.60;9.38;;;11.10;99.90;;;;;;4939770;28;89691;-36
2022/01/02 03:45:04;;;;;;;16.08;9.20;;;11.20;99.90;;;;;;4939774;28;87676;-37
2022/01/02 03:47:30;;;;;;;14.10;7.32;;;11.20;99.90;;;;;;4940340;28;88470;-40
2022/01/02 03:49:57;;;;;;;13.88;9.18;;;11.10;99.90;;;;;;4939430;28;90829;-38
2022/01/02 03:52:26;;;;;;;13.60;7.95;;;11.10;99.90;;;;;;4939882;28;90015;-42
2022/01/02 03:54:52;;;;;;;12.25;8.68;;;11.10;99.90;;;;;;4940433;28;87980;-36
2022/01/02 03:57:18;;;;;;;12.98;8.00;;;11.10;99.90;;;;;;4939814;28;87644;-42
2022/01/02 03:59:44;;;;;;;12.43;8.68;;;11.10;99.90;;;;;;4939234;28;90337;-38
2022/01/02 04:02:09;;;;;;;12.65;9.27;;;11.20;99.90;;;;;;4939292;28;89340;-39
2022/01/02 04:04:35;;;;;;;13.15;8.13;;;11.20;99.90;;;;;;4939708;28;87591;-39
2022/01/02 04:07:01;;;;;;;16.65;8.63;;;11.20;99.90;;;;;;4939572;28;88305;-41
2022/01/02 04:09:26;;;;;;;17.05;9.10;;;11.30;99.90;;;;;;4939381;28;90590;-38
2022/01/02 04:11:52;;;;;;;12.35;8.35;;;11.30;99.90;;;;;;4939777;28;89369;-36
2022/01/02 04:14:18;;;;;;;12.07;8.43;;;11.30;99.90;;;;;;4939317;28;87816;-41
2022/01/02 04:16:43;;;;;;;16.17;8.55;;;11.30;99.90;;;;;;4939846;28;87685;-37
2022/01/02 04:19:09;;;;;;;16.42;8.68;;;11.30;99.90;;;;;;4939406;28;90242;-36
2022/01/02 04:21:34;;;;;;;14.57;8.23;;;11.30;99.90;;;;;;4939504;28;89503;-38
2022/01/02 04:24:00;;;;;;;10.55;7.70;;;11.30;99.90;;;;;;4939045;28;88011;-40
2022/01/02 04:26:26;;;;;;;9.90;7.30;;;11.30;99.90;;;;;;4939452;28;88272;-44
2022/01/02 04:28:51;;;;;;;11.35;7.90;;;11.30;99.90;;;;;;4939392;28;90376;-37
2022/01/02 04:31:17;;;;;;;15.23;9.10;;;11.20;99.90;;;;;;4939190;28;89656;-39
2022/01/02 04:33:42;;;;;;;13.10;8.70;;;11.20;99.90;;;;;;4939562;28;87493;-41
2022/01/02 04:36:08;;;;;;;10.85;7.80;;;11.20;99.90;;;;;;4939119;28;87641;-39
2022/01/02 04:38:36;;;;;;;14.60;8.98;;;11.20;99.90;;;;;;4938977;28;89491;-42
2022/01/02 04:41:02;;;;;;;19.23;8.93;;;11.20;99.90;;;;;;4938835;28;88087;-39
2022/01/02 04:43:27;;;;;;;16.10;9.32;;;11.20;99.90;;;;;;4939227;28;87431;-35
2022/01/02 04:45:53;;;;;;;8.88;7.63;;;11.20;99.90;;;;;;4938788;28;87382;-39
2022/01/02 04:48:19;;;;;;;10.15;8.60;;;11.20;99.90;;;;;;4921514;28;92006;-40
2022/01/02 04:50:44;;;;;;;14.10;8.02;;;11.10;99.90;;;;;;4938653;28;89581;-39
2022/01/02 04:53:10;;;;;;;17.02;9.00;;;11.10;99.90;;;;;;4938395;28;88093;-40
2022/01/02 04:55:36;;;;;;;12.93;8.48;;;11.10;99.90;;;;;;4939281;28;88285;-38
2022/01/02 04:58:01;;;;;;;14.85;7.32;;;11.10;99.90;;;;;;4938502;28;90453;-42
2022/01/02 05:00:27;;;;;;;11.55;7.45;;;11.10;99.90;;;;;;4938885;28;89891;-41
2022/01/02 05:02:53;;;;;;;13.95;8.15;;;11.10;99.90;;;;;;4939409;28;89054;-39
2022/01/02 05:05:19;;;;;;;14.32;7.60;;;11.20;99.90;;;;;;4938241;28;87924;-39
2022/01/02 05:07:45;;;;;;;14.68;7.13;;;11.10;99.90;;;;;;4939034;28;90276;-38
2022/01/02 05:10:11;;;;;;;19.05;8.23;;;11.10;99.90;;;;;;4938127;28;89463;-38
2022/01/02 05:12:37;;;;;;;13.77;8.27;;;11.20;99.90;;;;;;4921484;28;87588;-41
2022/01/02 05:15:03;;;;;;;14.82;8.00;;;11.20;99.90;;;;;;4938275;28;88087;-40
2022/01/02 05:17:29;;;;;;;8.73;7.80;;;11.20;99.90;;;;;;4938828;28;90441;-36
2022/01/02 05:19:54;;;;;;;13.68;7.70;;;11.20;99.90;;;;;;4938522;28;89766;-40
2022/01/02 05:22:20;;;;;;;15.02;7.55;;;11.20;99.90;;;;;;4938264;28;87887;-41
2022/01/02 05:24:45;;;;;;;13.43;7.47;;;11.30;99.90;;;;;;4938690;28;87474;-39
2022/01/02 05:27:11;;;;;;;10.77;7.55;;;11.20;99.90;;;;;;4938242;28;91091;-37
2022/01/02 05:29:36;;;;;;;11.55;7.90;;;11.20;99.90;;;;;;4938213;28;89671;-40
2022/01/02 05:32:10;;;;;;;13.55;7.85;;;11.30;99.90;;;;;;4938652;28;87879;-41
2022/01/02 05:34:36;;;;;;;17.40;7.68;;;11.30;99.90;;;;;;4920753;28;87549;-38
2022/01/02 05:37:02;;;;;;;12.07;7.40;;;11.40;99.90;;;;;;4938153;28;89939;-37
2022/01/02 05:39:27;;;;;;;20.15;8.73;;;11.40;99.90;;;;;;4937745;28;89285;-39
2022/01/02 05:41:53;;;;;;;16.42;7.97;;;11.40;99.90;;;;;;4938350;28;87585;-39
2022/01/02 05:44:19;;;;;;;15.50;7.03;;;11.40;99.90;;;;;;4938200;28;87621;-38
2022/01/02 05:46:45;;;;;;;21.05;7.90;;;11.40;99.90;;;;;;4938212;28;90678;-38
2022/01/02 05:49:12;;;;;;;13.80;7.53;;;11.40;99.90;;;;;;4937630;28;89655;-39
2022/01/02 05:51:38;;;;;;;13.38;7.05;;;11.40;99.90;;;;;;4937913;28;87619;-42
2022/01/02 05:54:04;;;;;;;13.30;7.38;;;11.40;99.90;;;;;;4937880;28;87646;-37
2022/01/02 05:56:30;;;;;;;14.68;6.57;;;11.50;99.90;;;;;;4936704;28;89014;-40
2022/01/02 05:58:56;;;;;;;11.60;6.78;;;11.50;99.90;;;;;;4937823;28;90019;-41
2022/01/02 06:01:21;;;;;;;9.93;5.55;;;11.60;99.90;;;;;;4937560;28;87518;-38
2022/01/02 06:03:47;;;;;;;8.68;6.07;;;11.70;99.90;;;;;;4937735;28;87497;-35
2022/01/02 06:06:13;;;;;;;17.55;7.28;;;11.70;99.90;;;;;;4920350;28;90129;-34
2022/01/02 06:08:38;;;;;;;15.63;5.88;;;11.80;99.90;;;;;;4937591;28;90043;-42
2022/01/02 06:11:04;;;;;;;7.90;5.13;;;11.90;99.90;;;;;;4937667;28;87819;-37
2022/01/02 06:13:30;;;;;;;7.88;5.28;;;11.90;99.90;;;;;;4938374;28;88866;-39
2022/01/02 06:15:55;;;;;;;10.40;5.97;;;11.90;99.90;;;;;;4937654;28;90383;-38
2022/01/02 06:18:21;;;;;;;10.32;4.93;;;12.00;99.90;;;;;;4937402;28;89780;-39
2022/01/02 06:20:47;;;;;;;12.27;5.90;;;12.10;99.90;;;;;;4937976;28;87672;-40
2022/01/02 06:23:12;;;;;;;8.73;4.85;;;12.10;99.90;;;;;;4938006;28;88394;-36
2022/01/02 06:25:38;;;;;;;10.75;4.72;;;12.10;99.90;;;;;;4937372;28;90721;-40
2022/01/02 06:28:04;;;;;;;12.70;5.45;;;12.20;99.90;;;;;;4937214;28;89731;-35
2022/01/02 06:30:29;;;;;;;11.43;5.07;;;12.20;99.90;;;;;;4937554;28;87617;-41
2022/01/02 06:32:55;;;;;;;5.90;5.05;;;12.30;99.90;;;;;;4937992;28;87723;-37
2022/01/02 06:35:23;;;;;;;8.23;5.05;;;12.30;99.90;;;;;;4936895;28;88833;-37
2022/01/02 06:37:49;;;;;;;13.35;5.20;;;12.30;99.90;;;;;;4937231;28;88804;-36
2022/01/02 06:40:15;;;;;;;8.50;4.75;;;12.40;99.90;;;;;;4937333;28;87932;-37
2022/01/02 06:42:40;;;;;;;14.85;4.55;;;12.30;99.90;;;;;;4937620;28;87624;-39
2022/01/02 06:45:06;;;;;;;12.35;4.68;;;12.30;99.90;;;;;;4937106;28;89278;-43
2022/01/02 06:47:32;;;;;;;5.70;4.28;;;12.40;99.90;;;;;;4937156;28;89735;-37
2022/01/02 06:49:57;;;;;;;8.75;5.45;;;12.30;99.90;;;;;;4937639;28;89595;-44
2022/01/02 06:52:23;;;;;;;8.30;5.95;;;12.30;99.90;;;;;;4919343;28;87707;-39
2022/01/02 06:54:53;;;;;;;8.85;5.25;;;12.30;99.90;;;;;;4937035;28;90472;-39
2022/01/02 06:57:19;;;;;;;9.32;5.13;;;12.30;99.90;;;;;;4936996;28;88771;-38
2022/01/02 06:59:45;;;;;;;9.60;5.07;;;12.30;99.90;;;;;;4937631;28;87507;-39
2022/01/02 07:02:10;;;;;;;12.70;5.35;;;12.20;99.90;;;;;;4937427;28;88085;-38
2022/01/02 07:04:36;;;;;;;12.68;6.15;;;12.30;99.90;;;;;;4937014;28;90013;-41
2022/01/02 07:07:02;;;;;;;16.00;5.90;;;12.20;99.90;;;;;;4937213;28;89784;-42
2022/01/02 07:09:29;;;;;;;9.27;5.53;;;12.30;99.90;;;;;;4919787;28;88455;-39
2022/01/02 07:11:55;;;;;;;12.93;6.18;;;12.20;99.90;;;;;;4937782;28;87419;-40
2022/01/02 07:14:23;;;;;;;5.65;4.95;;;12.20;99.90;;;;;;4936915;28;90652;-38
2022/01/02 07:16:48;;;;;;;11.55;6.43;;;12.30;99.90;;;;;;4937291;28;89985;-39
2022/01/02 07:19:14;;;;;;;10.90;5.68;;;12.30;99.90;;;;;;4936048;28;87823;-40
2022/01/02 07:21:39;;;;;;;9.60;5.90;;;12.30;99.90;;;;;;4937433;28;87682;-35
2022/01/02 07:24:05;;;;;;;8.57;4.97;;;12.20;99.90;;;;;;4936925;28;90403;-44
2022/01/02 07:26:31;;;;;;;16.02;7.00;;;12.20;99.90;;;;;;4936986;28;89705;-38
2022/01/02 07:28:56;;;;;;;8.80;5.65;;;12.20;99.90;;;;;;4936843;28;87594;-38
2022/01/02 07:31:22;;;;;;;7.40;5.88;;;12.20;99.90;;;;;;4936998;28;87531;-39
2022/01/02 07:33:47;;;;;;;7.35;6.05;;;12.10;99.90;;;;;;4937325;28;90201;-39
2022/01/02 07:36:13;;;;;;;11.30;5.35;;;12.10;99.90;;;;;;4936422;28;90323;-42
2022/01/02 07:38:38;;;;;;;9.57;6.07;;;12.10;99.90;;;;;;4936487;28;87640;-40
2022/01/02 07:41:04;;;;;;;8.50;5.82;;;12.10;99.90;;;;;;4936962;28;87581;-38
2022/01/02 07:43:29;;;;;;;7.18;5.85;;;12.10;99.90;;;;;;4936759;28;90687;-40
2022/01/02 07:45:55;;;;;;;11.68;6.38;;;12.00;99.90;;;;;;4936514;28;90194;-40
2022/01/02 07:48:21;;;;;;;16.08;6.90;;;12.00;99.90;;;;;;4936242;28;87644;-35
2022/01/02 07:50:46;;;;;;;10.43;5.88;;;12.00;99.90;;;;;;4919339;28;89676;-43
2022/01/02 07:53:12;;;;;;;11.40;6.35;;;12.00;99.90;;;;;;4931134;28;90327;-40
2022/01/02 07:55:37;;;;;;;10.60;6.28;;;12.00;99.90;;;;;;4936256;28;89586;-36
2022/01/02 07:58:03;;;;;;;7.22;5.38;;;12.00;99.90;;;;;;4936082;28;87565;-39
2022/01/02 08:00:28;;;;;;;6.15;5.55;;;12.00;99.90;;;;;;4935858;28;88431;-39
2022/01/02 08:02:54;;;;;;;11.40;6.65;;;12.00;99.90;;;;;;4935970;28;89912;-40
2022/01/02 08:05:19;;;;;;;6.25;5.65;;;12.00;99.90;;;;;;4935193;28;92017;-40
2022/01/02 08:07:45;;;;;;;14.00;6.97;;;12.00;99.90;;;;;;4935376;28;87517;-37
2022/01/02 08:10:11;;;;;;;11.55;5.65;;;12.00;99.90;;;;;;4935895;28;87651;-35
2022/01/02 08:12:36;;;;;;;12.98;6.20;;;12.00;99.90;;;;;;4936517;28;88671;-38
2022/01/02 08:15:03;;;;;;;12.00;6.53;;;11.90;99.90;;;;;;4918467;28;89824;-42
2022/01/02 08:17:28;;;;;;;9.70;6.75;;;11.90;99.90;;;;;;4943008;28;88758;-38
2022/01/02 08:19:54;;;;;;;8.52;6.20;;;11.90;99.90;;;;;;4920632;28;88238;-42
2022/01/02 08:22:20;;;;;;;8.98;6.45;;;11.90;99.90;;;;;;4938792;28;90122;-41
2022/01/02 08:24:46;;;;;;;12.80;6.07;;;11.90;99.90;;;;;;4938611;28;89824;-42
2022/01/02 08:27:12;;;;;;;12.77;6.60;;;11.90;99.90;;;;;;4938792;28;87592;-39
2022/01/02 08:29:38;;;;;;;7.88;6.10;;;11.90;99.90;;;;;;4938929;28;88112;-41
2022/01/02 08:32:03;;;;;;;10.82;6.30;;;11.90;99.90;;;;;;4938925;28;90136;-41
2022/01/02 08:34:29;;;;;;;10.65;5.72;;;12.00;99.90;;;;;;4938428;28;89810;-34
2022/01/02 08:36:54;;;;;;;9.57;5.93;;;11.90;99.90;;;;;;4938400;28;87630;-45
2022/01/02 08:39:21;;;;;;;5.65;5.07;;;11.90;99.90;;;;;;4944677;28;88730;-40
2022/01/02 08:41:46;;;;;;;10.00;5.60;;;11.90;99.90;;;;;;4958158;28;90566;-40
2022/01/02 08:44:12;;;;;;;6.55;5.55;;;11.90;99.90;;;;;;4958411;28;89346;-39
2022/01/02 08:46:38;;;;;;;9.57;5.65;;;11.90;99.90;;;;;;4956517;28;88176;-43
2022/01/02 08:49:03;;;;;;;10.88;5.93;;;11.80;99.90;;;;;;4958424;28;87623;-36
2022/01/02 08:51:29;;;;;;;7.57;6.10;;;11.80;99.90;;;;;;4957621;28;90807;-39
2022/01/02 08:53:55;;;;;;;11.90;6.50;;;11.90;99.90;;;;;;4958558;28;90094;-36
2022/01/02 08:56:21;;;;;;;9.70;6.47;;;11.90;99.90;;;;;;4958287;28;87596;-39
2022/01/02 08:58:46;;;;;;;9.00;6.00;;;11.80;99.90;;;;;;4958467;28;87658;-38
2022/01/02 09:01:12;;;;;;;13.43;7.47;;;11.80;99.90;;;;;;4957544;28;95125;-35
2022/01/02 09:03:37;;;;;;;8.63;5.60;;;11.90;99.90;;;;;;4946712;28;92309;-41
2022/01/02 09:06:03;;;;;;;9.63;5.53;;;11.80;99.90;;;;;;4947958;28;87522;-39
2022/01/02 09:08:29;;;;;;;8.40;5.40;;;11.80;99.90;;;;;;4948527;28;87751;-37
2022/01/02 09:10:55;;;;;;;6.88;5.38;;;11.80;99.90;;;;;;4952697;28;89258;-40
2022/01/02 09:13:23;;;;;;;12.68;6.38;;;11.90;99.90;;;;;;4957548;28;88517;-37
2022/01/02 09:15:49;;;;;;;11.77;5.57;;;11.90;99.90;;;;;;4958312;28;88208;-40
2022/01/02 09:18:15;;;;;;;6.15;5.00;;;11.90;99.90;;;;;;4957604;28;87674;-39
2022/01/02 09:20:42;;;;;;;6.07;5.55;;;12.00;99.90;;;;;;4957838;28;90178;-40
2022/01/02 09:23:08;;;;;;;8.55;4.82;;;12.10;99.90;;;;;;4958484;28;89541;-40
2022/01/02 09:25:34;;;;;;;9.25;5.15;;;12.20;99.90;;;;;;4945540;28;88244;-42
2022/01/02 09:28:00;;;;;;;11.35;6.30;;;12.20;99.90;;;;;;4958402;28;87574;-41
2022/01/02 09:30:25;;;;;;;5.80;4.63;;;12.20;99.90;;;;;;4948067;28;90250;-38
2022/01/02 09:32:51;;;;;;;7.97;5.28;;;12.20;99.90;;;;;;4953004;28;89751;-41
2022/01/02 09:35:16;;;;;;;7.18;5.95;;;12.10;99.90;;;;;;4957505;28;87452;-41
2022/01/02 09:37:42;;;;;;;11.75;5.57;;;12.10;99.90;;;;;;4943186;28;88656;-41
2022/01/02 09:40:08;;;;;;;8.60;5.93;;;12.10;99.90;;;;;;4898030;28;92741;-37
2022/01/02 09:42:34;;;;;;;9.93;5.90;;;12.20;99.90;;;;;;4936677;28;89688;-39
2022/01/02 09:45:01;;;;;;;7.00;4.85;;;12.10;99.90;;;;;;4923665;28;88492;-38
2022/01/02 09:47:27;;;;;;;9.15;5.20;;;12.10;99.90;;;;;;4947268;28;87983;-41
2022/01/02 09:49:53;;;;;;;6.35;5.07;;;12.10;99.90;;;;;;4934731;28;91109;-42
2022/01/02 09:52:18;;;;;;;6.13;4.38;;;12.10;99.90;;;;;;4945810;28;89735;-43
2022/01/02 09:54:44;;;;;;;12.20;5.72;;;12.10;99.90;;;;;;4946679;28;87973;-41
2022/01/02 09:57:11;;;;;;;7.38;4.93;;;12.10;99.90;;;;;;4939439;28;89731;-38
2022/01/02 09:59:37;;;;;;;7.88;5.30;;;12.20;99.90;;;;;;4945490;28;90418;-43
2022/01/02 10:02:03;;;;;;;9.70;5.75;;;12.20;99.90;;;;;;4946586;28;88862;-40
2022/01/02 10:04:37;;;;;;;11.25;5.80;;;12.20;99.90;;;;;;4946007;28;88724;-38
2022/01/02 10:07:24;;;;;;;11.13;5.65;;;12.20;99.90;;;;;;4946361;28;87678;-47
2022/01/02 10:09:50;;;;;;;9.10;5.72;;;12.20;99.90;;;;;;4919544;28;90226;-42
2022/01/02 10:12:28;;;;;;;8.52;6.57;;;12.20;99.90;;;;;;4946403;28;89853;-40
2022/01/02 10:15:06;;;;;;;8.55;5.05;;;12.20;99.90;;;;;;4946550;28;87631;-41
2022/01/02 10:17:53;;;;;;;8.00;5.82;;;12.20;99.90;;;;;;4914523;28;87652;-42
2022/01/02 10:20:24;;;;;;;5.93;5.32;;;12.20;99.90;;;;;;4945672;28;90004;-39
2022/01/02 10:23:01;;;;;;;8.18;5.38;;;12.20;99.90;;;;;;4946579;28;89882;-45
2022/01/02 10:25:48;;;;;;;11.68;5.65;;;12.20;99.90;;;;;;4945509;28;88196;-38
2022/01/02 10:28:39;;;;;;;10.38;5.60;;;12.20;99.90;;;;;;4946060;28;87580;-40
2022/01/02 10:31:10;;;;;;;9.55;5.78;;;12.10;99.90;;;;;;4945974;28;88955;-40
2022/01/02 10:33:54;;;;;;;8.40;6.03;;;12.10;99.90;;;;;;4933194;28;90000;-43
2022/01/02 10:36:42;;;;;;;9.65;6.80;;;12.20;99.90;;;;;;4945720;28;88399;-45
2022/01/02 10:39:09;;;;;;;7.13;5.65;;;12.20;99.90;;;;;;4929026;28;88511;-40
2022/01/02 10:41:37;;;;;;;10.27;5.63;;;12.20;99.90;;;;;;4939611;28;89255;-43
2022/01/02 10:44:33;;;;;;;10.48;6.13;;;12.30;99.90;;;;;;4945600;28;89409;-40
2022/01/02 10:47:21;;;;;;;8.95;6.45;;;12.30;99.90;;;;;;4946230;28;87611;-41
2022/01/02 10:50:08;;;;;;;8.05;7.10;;;12.40;99.90;;;;;;4915077;28;87998;-43
2022/01/02 10:55:34;;;;;;;10.30;6.35;;;12.30;99.90;;;;;;4920133;28;88483;-38
2022/01/02 10:58:01;;;;;;;9.23;6.28;;;12.40;99.90;;;;;;4915749;28;88380;-41
2022/01/02 11:00:27;;;;;;;8.98;6.22;;;12.40;99.90;;;;;;4923926;28;88451;-41
2022/01/02 11:02:53;;;;;;;9.25;5.85;;;12.40;99.90;;;;;;4915766;28;90514;-40
2022/01/02 11:05:21;;;;;;;7.63;6.53;;;12.40;99.90;;;;;;4922254;28;89760;-43
2022/01/02 11:07:54;;;;;;;8.32;6.68;;;12.40;99.90;;;;;;4944809;28;88040;-46
2022/01/02 11:10:23;;;;;;;9.75;7.45;;;12.50;99.90;;;;;;4945578;28;87641;-45
2022/01/02 11:12:50;;;;;;;7.25;6.55;;;12.60;99.90;;;;;;4946217;28;90105;-41
2022/01/02 11:15:21;;;;;;;6.97;6.32;;;12.60;99.90;;;;;;4945387;28;89513;-40
2022/01/02 11:17:47;;;;;;;6.95;6.35;;;12.60;99.90;;;;;;4926680;28;88492;-42
2022/01/02 11:20:24;;;;;;;10.85;6.75;;;12.50;99.90;;;;;;4943631;28;88400;-41
2022/01/02 11:22:58;;;;;;;7.82;7.13;;;12.50;99.90;;;;;;4932437;28;90578;-42
2022/01/02 11:25:42;;;;;;;11.07;6.68;;;12.60;99.90;;;;;;4876936;28;89538;-38
2022/01/02 11:28:32;;;;;;;9.48;7.00;;;12.60;99.90;;;;;;4924121;28;88951;-41
2022/01/02 11:30:58;;;;;;;13.10;7.38;;;12.60;99.90;;;;;;4933754;28;88737;-43
2022/01/02 11:33:41;;;;;;;10.70;7.72;;;12.60;99.90;;;;;;4920613;28;90403;-42
2022/01/02 11:36:25;;;;;;;9.48;7.47;;;12.60;99.90;;;;;;4848811;28;92494;-42
2022/01/02 11:38:58;;;;;;;8.38;7.57;;;12.60;99.90;;;;;;4912561;28;87967;-42
2022/01/02 11:41:39;;;;;;;11.30;7.13;;;12.70;99.90;;;;;;4915389;28;88814;-43
2022/01/02 11:44:15;;;;;;;13.18;7.85;;;12.60;99.90;;;;;;4914963;28;89963;-42
2022/01/02 11:46:56;;;;;;;9.55;7.90;;;12.60;99.90;;;;;;4918352;28;88718;-42
2022/01/02 11:49:43;;;;;;;10.25;8.32;;;12.60;99.90;;;;;;4920387;28;88677;-43
2022/01/02 11:52:20;;;;;;;13.02;8.50;;;12.60;99.90;;;;;;4922300;28;87868;-44
2022/01/02 11:54:48;;;;;;;8.48;7.18;;;12.60;99.90;;;;;;4945013;28;90874;-41
2022/01/02 11:57:14;;;;;;;13.25;8.35;;;12.60;99.90;;;;;;4924916;28;89540;-41
2022/01/02 11:59:40;;;;;;;9.40;8.48;;;12.70;99.90;;;;;;4920282;28;88090;-41
2022/01/02 12:02:17;;;;;;;9.70;7.43;;;12.70;99.90;;;;;;4936611;28;89883;-45
2022/01/02 12:05:11;;;;;;;10.25;7.68;;;12.60;99.90;;;;;;4946490;28;90359;-43
2022/01/02 12:07:55;;;;;;;10.73;7.25;;;12.60;99.90;;;;;;4920692;28;90100;-42
2022/01/02 12:10:41;;;;;;;10.25;6.90;;;12.70;99.90;;;;;;4916316;28;88885;-43
2022/01/02 12:13:09;;;;;;;14.27;6.70;;;12.70;99.90;;;;;;4946447;28;87892;-42
2022/01/02 12:15:38;;;;;;;;;;;12.70;99.90;;;;;;4946978;28;89690;-44
2022/01/02 12:18:09;;;;;;;9.23;5.63;;;12.60;99.90;;;;;;4946942;28;90291;-43
2022/01/02 12:20:50;;;;;;;6.32;5.70;;;12.70;99.90;;;;;;4946252;28;87657;-39
2022/01/02 12:23:30;;;;;;;6.93;6.25;;;12.70;99.90;;;;;;4945600;28;89237;-43
2022/01/02 12:26:11;;;;;;;7.63;5.90;;;12.70;99.90;;;;;;4946124;28;90332;-44
2022/01/02 12:28:45;;;;;;;7.90;5.72;;;12.60;99.90;;;;;;4946534;28;89575;-45
2022/01/02 12:31:16;;;;;;;8.10;6.20;;;12.60;99.90;;;;;;4927416;28;88385;-42
2022/01/02 12:33:43;;;;;;;6.93;5.53;;;12.70;99.90;;;;;;4943695;28;89164;-44
2022/01/02 12:36:09;;;;;;;9.65;6.65;;;12.70;99.90;;;;;;4945682;28;89217;-40
2022/01/02 12:38:52;;;;;;;9.73;6.55;;;12.70;99.90;;;;;;4945265;28;89789;-44
2022/01/02 12:41:22;;;;;;;11.20;5.75;;;12.60;99.90;;;;;;4945784;28;88916;-41
2022/01/02 12:44:00;;;;;;;7.32;5.80;;;12.70;99.90;;;;;;4945288;28;88466;-42
2022/01/02 12:46:37;;;;;;;6.95;6.22;;;12.60;99.90;;;;;;4945104;28;90656;-43
2022/01/02 12:49:04;;;;;;;10.25;6.07;;;12.60;99.90;;;;;;4946372;28;90989;-39
2022/01/02 12:51:32;;;;;;;8.05;5.88;;;12.60;99.90;;;;;;4945431;28;88363;-45
2022/01/02 12:54:05;;;;;;;9.68;5.55;;;12.60;99.90;;;;;;4944904;28;87611;-42
2022/01/02 12:56:46;;;;;;;8.23;5.30;;;12.60;99.90;;;;;;4944953;28;90435;-43
2022/01/02 12:59:16;;;;;;;10.90;5.10;;;12.60;99.90;;;;;;4946117;28;89378;-41